Time;durP1;ratioP1;P1;durP2;ratioP2;P2;SDS_P1;SDS_P2;PMS_P1;PMS_P2;Temp;Humidity;BMP_temperature;BMP_pressure;BME280_temperature;BME280_humidity;BME280_pressure;Samples;Min_cycle;Max_cycle;Signal;HPM_P1;HPM_P2
2022/04/06 00:02:00;;;;;;;241.15;35.60;;;;;;;;;;5032842;28;20028;-39
2022/04/06 00:04:27;;;;;;;260.90;36.60;;;;;;;;;;5031607;28;20026;-38
2022/04/06 00:06:54;;;;;;;271.55;35.55;;;;;;;;;;5014142;28;20057;-37
2022/04/06 00:09:21;;;;;;;264.70;36.10;;;;;;;;;;5031939;28;20095;-38
2022/04/06 00:11:48;;;;;;;235.85;35.17;;;;;;;;;;5031527;28;20293;-38
2022/04/06 00:14:16;;;;;;;246.02;38.08;;;;;;;;;;5031826;28;20083;-37
2022/04/06 00:16:43;;;;;;;238.82;37.78;;;;;;;;;;5031341;28;20763;-38
2022/04/06 00:19:10;;;;;;;255.73;38.42;;;;;;;;;;5031935;28;20025;-38
2022/04/06 00:21:37;;;;;;;229.98;36.28;;;;;;;;;;5032555;28;20026;-37
2022/04/06 00:24:04;;;;;;;235.10;36.75;;;;;;;;;;5014179;28;20060;-37
2022/04/06 00:26:31;;;;;;;253.02;38.13;;;;;;;;;;5033297;28;20036;-47
2022/04/06 00:28:58;;;;;;;224.75;36.35;;;;;;;;;;5033774;28;20037;-38
2022/04/06 00:31:25;;;;;;;241.75;39.30;;;;;;;;;;5014888;28;20396;-38
2022/04/06 00:33:52;;;;;;;220.48;37.95;;;;;;;;;;5015092;28;20029;-38
2022/04/06 00:36:19;;;;;;;241.20;41.15;;;;;;;;;;5031887;28;20049;-39
2022/04/06 00:38:46;;;;;;;244.82;41.00;;;;;;;;;;5033079;28;20168;-38
2022/04/06 00:41:13;;;;;;;234.75;41.13;;;;;;;;;;5033625;28;20063;-38
2022/04/06 00:43:40;;;;;;;221.30;43.33;;;;;;;;;;5032199;28;20099;-38
2022/04/06 00:46:07;;;;;;;240.18;45.83;;;;;;;;;;5033079;28;20108;-38
2022/04/06 00:48:35;;;;;;;263.52;48.45;;;;;;;;;;5031867;28;20040;-38
2022/04/06 00:51:02;;;;;;;276.05;51.92;;;;;;;;;;5033117;28;20080;-38
2022/04/06 00:53:29;;;;;;;286.90;55.25;;;;;;;;;;5032984;28;20032;-38
2022/04/06 00:55:57;;;;;;;346.10;67.82;;;;;;;;;;5032601;28;20033;-38
2022/04/06 00:58:24;;;;;;;376.45;74.28;;;;;;;;;;5033546;28;20049;-38
2022/04/06 01:00:51;;;;;;;397.45;83.40;;;;;;;;;;5032126;28;20041;-38
2022/04/06 01:03:18;;;;;;;397.50;88.40;;;;;;;;;;5033400;28;20471;-38
2022/04/06 01:05:45;;;;;;;399.65;87.70;;;;;;;;;;5014932;28;20079;-38
2022/04/06 01:08:12;;;;;;;396.70;83.00;;;;;;;;;;5013510;28;20450;-38
2022/04/06 01:10:39;;;;;;;364.75;81.00;;;;;;;;;;5032757;28;20040;-37
2022/04/06 01:13:06;;;;;;;371.48;76.05;;;;;;;;;;5032824;28;20110;-37
2022/04/06 01:15:33;;;;;;;332.00;71.22;;;;;;;;;;5032682;28;20436;-37
2022/04/06 01:18:00;;;;;;;315.23;68.28;;;;;;;;;;5033169;28;20037;-38
2022/04/06 01:20:29;;;;;;;287.73;61.13;;;;;;;;;;5032522;28;20076;-38
2022/04/06 01:22:56;;;;;;;281.58;62.30;;;;;;;;;;5014992;28;20057;-38
2022/04/06 01:25:23;;;;;;;284.10;59.53;;;;;;;;;;5014890;28;20030;-38
2022/04/06 01:27:50;;;;;;;259.27;58.90;;;;;;;;;;5032655;28;20048;-38
2022/04/06 01:30:17;;;;;;;281.17;59.85;;;;;;;;;;5033316;28;20075;-37
2022/04/06 01:32:44;;;;;;;246.80;55.72;;;;;;;;;;5028741;28;20060;-37
2022/04/06 01:35:11;;;;;;;268.00;54.83;;;;;;;;;;5033394;28;20030;-37
2022/04/06 01:37:38;;;;;;;245.13;52.35;;;;;;;;;;5032202;28;20055;-38
2022/04/06 01:40:06;;;;;;;249.00;50.72;;;;;;;;;;5032872;28;20052;-37
2022/04/06 01:42:33;;;;;;;240.07;50.13;;;;;;;;;;5032746;28;20037;-38
2022/04/06 01:45:00;;;;;;;235.13;51.35;;;;;;;;;;5021809;28;20112;-37
2022/04/06 01:47:27;;;;;;;234.70;49.85;;;;;;;;;;5027925;28;20125;-37
2022/04/06 01:52:39;;;;;;;239.73;50.53;;;;;;;;;;5032377;28;20072;-39
2022/04/06 01:55:08;;;;;;;219.38;46.00;;;;;;;;;;5031855;28;20035;-38
2022/04/06 01:57:35;;;;;;;230.23;47.30;;;;;;;;;;5032845;28;20360;-38
2022/04/06 02:00:02;;;;;;;201.27;45.20;;;;;;;;;;5032863;28;20036;-38
2022/04/06 02:02:31;;;;;;;213.95;44.83;;;;;;;;;;5032672;28;20075;-38
2022/04/06 02:04:59;;;;;;;201.40;43.75;;;;;;;;;;5033138;28;20092;-38
2022/04/06 02:07:26;;;;;;;203.23;44.90;;;;;;;;;;5006733;28;20438;-38
2022/04/06 02:09:53;;;;;;;185.30;43.08;;;;;;;;;;5023795;28;20075;-38
2022/04/06 02:12:22;;;;;;;189.93;41.58;;;;;;;;;;5032134;28;20434;-38
2022/04/06 02:14:49;;;;;;;184.15;39.08;;;;;;;;;;5032094;28;20037;-38
2022/04/06 02:17:17;;;;;;;178.48;40.60;;;;;;;;;;5033033;28;20029;-38
2022/04/06 02:19:44;;;;;;;180.95;37.05;;;;;;;;;;5031872;28;20101;-38
2022/04/06 02:22:11;;;;;;;189.98;37.50;;;;;;;;;;5032001;28;20387;-38
2022/04/06 02:24:39;;;;;;;159.55;36.53;;;;;;;;;;5032168;28;20133;-38
2022/04/06 02:27:07;;;;;;;147.48;32.22;;;;;;;;;;5025497;28;20092;-38
2022/04/06 02:29:34;;;;;;;146.32;33.15;;;;;;;;;;5031769;28;20056;-37
2022/04/06 02:32:01;;;;;;;147.13;34.45;;;;;;;;;;5032410;28;20144;-37
2022/04/06 02:34:28;;;;;;;139.23;31.83;;;;;;;;;;5031744;28;20029;-37
2022/04/06 02:36:55;;;;;;;136.43;32.83;;;;;;;;;;5032142;28;20423;-37
2022/04/06 02:39:22;;;;;;;137.05;31.60;;;;;;;;;;5013510;28;20076;-37
2022/04/06 02:41:53;;;;;;;135.00;31.80;;;;;;;;;;5032297;28;20072;-37
2022/04/06 02:44:20;;;;;;;118.32;28.25;;;;;;;;;;5030812;28;20029;-37
2022/04/06 02:46:51;;;;;;;112.90;28.70;;;;;;;;;;4994701;28;20026;-37
2022/04/06 02:49:21;;;;;;;117.28;27.67;;;;;;;;;;5012027;28;20476;-37
2022/04/06 02:51:51;;;;;;;107.05;26.75;;;;;;;;;;4994032;28;20030;-37
2022/04/06 02:54:19;;;;;;;114.70;26.58;;;;;;;;;;5012716;28;20026;-37
2022/04/06 02:56:46;;;;;;;109.57;25.13;;;;;;;;;;4980138;28;20117;-37
2022/04/06 02:59:17;;;;;;;110.00;26.45;;;;;;;;;;5013280;28;20069;-37
2022/04/06 03:01:44;;;;;;;101.38;26.58;;;;;;;;;;5012656;28;20033;-37
2022/04/06 03:04:11;;;;;;;103.15;26.10;;;;;;;;;;4993723;28;20029;-37
2022/04/06 03:06:39;;;;;;;108.68;24.95;;;;;;;;;;5012589;28;20030;-37
2022/04/06 03:09:12;;;;;;;104.93;24.60;;;;;;;;;;5011816;28;20120;-37
2022/04/06 03:11:39;;;;;;;100.03;23.55;;;;;;;;;;5012467;28;20051;-37
2022/04/06 03:14:06;;;;;;;100.18;24.48;;;;;;;;;;5012163;28;20411;-37
2022/04/06 03:16:33;;;;;;;89.15;22.67;;;;;;;;;;5011835;28;20527;-37
2022/04/06 03:19:00;;;;;;;87.43;22.90;;;;;;;;;;5012111;28;20025;-38
2022/04/06 03:21:27;;;;;;;90.45;21.85;;;;;;;;;;5012099;28;20026;-37
2022/04/06 03:23:54;;;;;;;84.57;22.58;;;;;;;;;;5011846;28;20496;-37
2022/04/06 03:26:21;;;;;;;79.43;20.70;;;;;;;;;;5011718;28;20111;-37
2022/04/06 03:28:48;;;;;;;85.32;20.42;;;;;;;;;;5012254;28;20480;-37
2022/04/06 03:31:17;;;;;;;72.63;18.88;;;;;;;;;;5012180;28;20014;-37
2022/04/06 03:33:44;;;;;;;70.15;20.10;;;;;;;;;;5000717;28;20042;-37
2022/04/06 03:36:11;;;;;;;68.78;18.77;;;;;;;;;;5018043;28;20026;-37
2022/04/06 03:38:41;;;;;;;74.82;18.92;;;;;;;;;;5018554;28;20040;-37
2022/04/06 03:41:10;;;;;;;74.10;19.85;;;;;;;;;;5018199;28;20032;-37
2022/04/06 03:43:37;;;;;;;67.22;18.50;;;;;;;;;;5018105;28;20065;-37
2022/04/06 03:46:04;;;;;;;68.80;17.67;;;;;;;;;;5018551;28;20032;-37
2022/04/06 03:48:31;;;;;;;56.75;16.85;;;;;;;;;;5018023;28;20436;-37
2022/04/06 03:50:58;;;;;;;63.30;17.48;;;;;;;;;;5018435;28;20373;-37
2022/04/06 03:53:25;;;;;;;55.10;15.93;;;;;;;;;;5017885;28;20022;-37
2022/04/06 03:55:52;;;;;;;68.85;16.80;;;;;;;;;;5018003;28;20030;-37
2022/04/06 03:58:19;;;;;;;63.03;18.05;;;;;;;;;;5018630;28;20069;-37
2022/04/06 04:00:46;;;;;;;57.63;15.20;;;;;;;;;;4999757;28;20435;-37
2022/04/06 04:03:13;;;;;;;61.65;16.02;;;;;;;;;;5018430;28;20018;-37
2022/04/06 04:05:42;;;;;;;56.88;14.60;;;;;;;;;;5017935;28;20805;-37
2022/04/06 04:08:09;;;;;;;50.47;15.13;;;;;;;;;;5018086;28;20053;-37
2022/04/06 04:10:36;;;;;;;54.80;15.20;;;;;;;;;;5018133;28;20022;-37
2022/04/06 04:13:03;;;;;;;50.90;14.18;;;;;;;;;;5017838;28;20030;-37
2022/04/06 04:15:31;;;;;;;54.53;15.32;;;;;;;;;;5018240;28;20022;-37
2022/04/06 04:17:58;;;;;;;49.33;13.35;;;;;;;;;;5017168;28;20034;-37
2022/04/06 04:20:25;;;;;;;47.65;13.73;;;;;;;;;;5017962;28;20484;-37
2022/04/06 04:22:52;;;;;;;54.30;15.07;;;;;;;;;;5016708;28;20030;-38
2022/04/06 04:25:19;;;;;;;43.58;12.43;;;;;;;;;;5017829;28;20534;-37
2022/04/06 04:27:46;;;;;;;47.55;12.43;;;;;;;;;;5016981;28;20079;-38
2022/04/06 04:30:13;;;;;;;49.13;13.32;;;;;;;;;;5017143;28;20029;-37
2022/04/06 04:32:40;;;;;;;43.05;12.30;;;;;;;;;;5017608;28;20052;-37
2022/04/06 04:35:08;;;;;;;39.03;12.02;;;;;;;;;;5017867;28;20034;-38
2022/04/06 04:37:37;;;;;;;43.50;12.80;;;;;;;;;;5016294;28;20044;-38
2022/04/06 04:40:04;;;;;;;39.53;11.90;;;;;;;;;;5000087;28;20461;-38
2022/04/06 04:42:31;;;;;;;39.65;11.98;;;;;;;;;;5017093;28;20030;-37
2022/04/06 04:44:59;;;;;;;39.00;10.20;;;;;;;;;;5013740;28;20108;-37
2022/04/06 04:47:25;;;;;;;32.67;10.13;;;;;;;;;;5014199;28;20064;-37
2022/04/06 04:49:52;;;;;;;36.08;10.68;;;;;;;;;;5014349;28;20858;-37
2022/04/06 04:52:19;;;;;;;38.25;10.55;;;;;;;;;;5013925;28;20092;-37
2022/04/06 04:54:46;;;;;;;41.15;10.95;;;;;;;;;;5014490;28;20497;-37
2022/04/06 04:57:13;;;;;;;32.42;10.00;;;;;;;;;;5014120;28;20041;-37
2022/04/06 04:59:40;;;;;;;32.63;10.10;;;;;;;;;;5013787;28;20455;-37
2022/04/06 05:02:07;;;;;;;34.67;9.52;;;;;;;;;;5013844;28;20427;-38
2022/04/06 05:04:34;;;;;;;37.45;10.10;;;;;;;;;;5035205;28;20025;-38
2022/04/06 05:07:01;;;;;;;34.53;10.10;;;;;;;;;;5034401;28;20025;-37
2022/04/06 05:09:28;;;;;;;32.55;9.65;;;;;;;;;;5033547;28;20042;-37
2022/04/06 05:11:55;;;;;;;32.28;9.75;;;;;;;;;;5027948;28;20037;-37
2022/04/06 05:14:23;;;;;;;30.05;8.95;;;;;;;;;;5033512;28;20037;-37
2022/04/06 05:16:50;;;;;;;29.73;9.15;;;;;;;;;;5034029;28;20033;-37
2022/04/06 05:19:17;;;;;;;28.00;9.07;;;;;;;;;;5033133;28;20038;-37
2022/04/06 05:21:44;;;;;;;31.17;8.45;;;;;;;;;;5034246;28;20464;-37
2022/04/06 05:24:11;;;;;;;32.65;8.95;;;;;;;;;;5033252;28;20029;-37
2022/04/06 05:26:38;;;;;;;28.10;8.20;;;;;;;;;;5033632;28;20026;-37
2022/04/06 05:29:05;;;;;;;28.90;8.05;;;;;;;;;;5033447;28;20044;-37
2022/04/06 05:31:32;;;;;;;31.15;8.70;;;;;;;;;;5033083;28;20033;-37
2022/04/06 05:33:59;;;;;;;27.05;8.30;;;;;;;;;;5033578;28;20029;-37
2022/04/06 05:36:28;;;;;;;28.45;8.93;;;;;;;;;;5033915;28;20558;-37
2022/04/06 05:38:56;;;;;;;26.30;7.55;;;;;;;;;;5032135;28;20069;-38
2022/04/06 05:41:23;;;;;;;24.95;7.75;;;;;;;;;;5033116;28;20529;-37
2022/04/06 05:43:50;;;;;;;26.08;8.80;;;;;;;;;;5032822;28;20033;-37
2022/04/06 05:46:17;;;;;;;27.10;7.40;;;;;;;;;;5033349;28;20026;-37
2022/04/06 05:48:44;;;;;;;24.42;7.50;;;;;;;;;;5032454;28;20467;-37
2022/04/06 05:51:11;;;;;;;25.05;7.70;;;;;;;;;;5033437;28;20053;-37
2022/04/06 05:53:38;;;;;;;29.45;8.25;;;;;;;;;;5032876;28;20021;-37
2022/04/06 05:56:06;;;;;;;21.38;7.25;;;;;;;;;;5032907;28;20113;-38
2022/04/06 05:58:33;;;;;;;21.02;7.70;;;;;;;;;;5033573;28;20067;-38
2022/04/06 06:01:00;;;;;;;23.15;6.72;;;;;;;;;;5032646;28;20454;-38
2022/04/06 06:03:27;;;;;;;21.85;7.18;;;;;;;;;;5033672;28;20126;-38
2022/04/06 06:05:54;;;;;;;20.65;7.05;;;;;;;;;;5033248;28;20036;-38
2022/04/06 06:08:21;;;;;;;21.77;6.78;;;;;;;;;;5033155;28;20044;-37
2022/04/06 06:10:48;;;;;;;21.63;6.70;;;;;;;;;;5032723;28;20026;-37
2022/04/06 06:13:15;;;;;;;21.52;7.13;;;;;;;;;;5032400;28;20061;-37
2022/04/06 06:15:42;;;;;;;16.92;6.45;;;;;;;;;;5032860;28;20040;-37
2022/04/06 06:18:09;;;;;;;27.85;7.65;;;;;;;;;;5033274;28;20079;-37
2022/04/06 06:20:36;;;;;;;22.08;7.30;;;;;;;;;;5033232;28;20087;-37
2022/04/06 06:23:03;;;;;;;22.63;6.40;;;;;;;;;;5032017;28;20025;-37
2022/04/06 06:25:30;;;;;;;19.05;6.18;;;;;;;;;;5032546;28;20032;-37
2022/04/06 06:27:57;;;;;;;22.77;6.75;;;;;;;;;;5033113;28;20041;-37
2022/04/06 06:30:26;;;;;;;26.15;7.30;;;;;;;;;;5032907;28;20101;-37
2022/04/06 06:32:54;;;;;;;20.38;5.95;;;;;;;;;;5171890;22;20456;-38
2022/04/06 06:35:23;;;;;;;22.90;6.30;;;;;;;;;;5052696;28;20088;-38
2022/04/06 06:37:55;;;;;;;21.70;7.00;;;;;;;;;;5052026;28;20037;-38
2022/04/06 06:40:23;;;;;;;19.92;6.07;;;;;;;;;;5051502;28;20243;-37
2022/04/06 06:42:50;;;;;;;20.08;6.03;;;;;;;;;;5052432;28;20025;-37
2022/04/06 06:45:17;;;;;;;18.67;5.93;;;;;;;;;;5051995;28;20035;-37
2022/04/06 06:47:45;;;;;;;16.90;6.03;;;;;;;;;;5051983;28;20108;-38
2022/04/06 06:50:14;;;;;;;21.50;5.78;;;;;;;;;;5051525;28;20040;-37
2022/04/06 06:52:41;;;;;;;19.45;5.97;;;;;;;;;;5052165;28;20021;-37
2022/04/06 06:55:08;;;;;;;19.00;5.90;;;;;;;;;;5051609;28;20398;-37
2022/04/06 06:57:35;;;;;;;18.35;6.28;;;;;;;;;;5051867;28;20021;-37
2022/04/06 07:00:03;;;;;;;16.10;5.78;;;;;;;;;;5052023;28;20052;-37
2022/04/06 07:02:30;;;;;;;15.68;5.57;;;;;;;;;;5051094;28;20029;-37
2022/04/06 07:04:57;;;;;;;19.73;5.75;;;;;;;;;;5051902;28;20037;-37
2022/04/06 07:07:24;;;;;;;20.27;5.78;;;;;;;;;;5050681;28;20021;-37
2022/04/06 07:09:51;;;;;;;16.40;6.25;;;;;;;;;;5051554;28;20431;-37
2022/04/06 07:12:18;;;;;;;15.95;5.05;;;;;;;;;;5050733;28;20043;-37
2022/04/06 07:14:45;;;;;;;16.95;5.25;;;;;;;;;;5052132;28;20132;-38
2022/04/06 07:17:12;;;;;;;15.45;5.78;;;;;;;;;;5051565;28;20104;-37
2022/04/06 07:19:41;;;;;;;17.25;5.03;;;;;;;;;;5051598;28;20040;-37
2022/04/06 07:22:08;;;;;;;14.50;5.47;;;;;;;;;;5050752;28;20405;-36
2022/04/06 07:24:35;;;;;;;15.27;5.57;;;;;;;;;;5051628;28;20016;-38
2022/04/06 07:27:02;;;;;;;15.27;5.05;;;;;;;;;;5050112;28;20701;-37
2022/04/06 07:29:29;;;;;;;13.27;4.75;;;;;;;;;;5051034;28;20095;-37
2022/04/06 07:31:56;;;;;;;15.73;4.75;;;;;;;;;;5051373;28;20055;-37
2022/04/06 07:34:23;;;;;;;14.82;5.18;;;;;;;;;;5051531;28;20064;-37
2022/04/06 07:36:50;;;;;;;15.05;4.95;;;;;;;;;;5051102;28;20045;-37
2022/04/06 07:39:16;;;;;;;11.43;4.88;;;;;;;;;;5051160;28;20100;-37
2022/04/06 07:41:43;;;;;;;14.68;5.30;;;;;;;;;;5050823;28;20096;-37
2022/04/06 07:44:10;;;;;;;15.15;4.90;;;;;;;;;;5051482;28;20383;-37
2022/04/06 07:46:38;;;;;;;13.15;4.60;;;;;;;;;;5050989;28;20033;-37
2022/04/06 07:49:06;;;;;;;16.02;4.72;;;;;;;;;;5051391;28;20076;-37
2022/04/06 07:51:33;;;;;;;18.05;5.05;;;;;;;;;;5050613;28;20549;-38
2022/04/06 07:54:00;;;;;;;14.30;4.70;;;;;;;;;;5050977;28;20110;-37
2022/04/06 07:56:27;;;;;;;12.57;4.45;;;;;;;;;;5051162;28;20036;-37
2022/04/06 07:58:54;;;;;;;11.57;4.68;;;;;;;;;;5050441;28;20033;-37
2022/04/06 08:01:21;;;;;;;12.32;4.50;;;;;;;;;;5051324;28;20024;-37
2022/04/06 08:03:48;;;;;;;10.60;4.45;;;;;;;;;;5049538;28;20552;-37
2022/04/06 08:06:15;;;;;;;12.48;4.22;;;;;;;;;;5050536;28;20385;-37
2022/04/06 08:08:42;;;;;;;11.20;4.45;;;;;;;;;;5050620;28;20120;-37
2022/04/06 08:11:08;;;;;;;12.05;4.40;;;;;;;;;;5050903;28;20021;-38
2022/04/06 08:13:35;;;;;;;9.77;3.50;;;;;;;;;;5050869;28;20025;-38
2022/04/06 08:16:03;;;;;;;14.63;5.40;;;;;;;;;;5051356;28;20385;-37
2022/04/06 08:18:29;;;;;;;10.25;4.18;;;;;;;;;;5050335;28;20111;-37
2022/04/06 08:20:57;;;;;;;11.05;3.97;;;;;;;;;;5054930;28;20028;-37
2022/04/06 08:23:24;;;;;;;14.18;4.88;;;;;;;;;;5054477;28;20165;-37
2022/04/06 08:25:52;;;;;;;9.30;3.85;;;;;;;;;;5054534;28;20033;-37
2022/04/06 08:28:19;;;;;;;10.70;3.90;;;;;;;;;;5054531;28;20049;-37
2022/04/06 08:30:47;;;;;;;9.93;3.78;;;;;;;;;;5054052;28;20025;-37
2022/04/06 08:33:15;;;;;;;11.20;3.88;;;;;;;;;;5053795;28;20048;-37
2022/04/06 08:35:43;;;;;;;14.93;4.30;;;;;;;;;;5054168;28;20039;-37
2022/04/06 08:38:14;;;;;;;11.80;4.15;;;;;;;;;;5054227;28;20064;-37
2022/04/06 08:40:42;;;;;;;12.73;4.30;;;;;;;;;;5054065;28;20044;-38
2022/04/06 08:43:10;;;;;;;12.02;3.95;;;;;;;;;;5053682;28;20673;-37
2022/04/06 08:45:40;;;;;;;10.63;3.92;;;;;;;;;;5054209;28;20021;-37
2022/04/06 08:48:08;;;;;;;11.65;3.55;;;;;;;;;;5053762;28;20033;-37
2022/04/06 08:50:36;;;;;;;15.43;4.32;;;;;;;;;;5053444;28;20033;-38
2022/04/06 08:53:04;;;;;;;15.85;4.25;;;;;;;;;;5054190;28;20036;-37
2022/04/06 08:55:31;;;;;;;12.18;4.20;;;;;;;;;;5053825;28;20025;-38
2022/04/06 08:57:58;;;;;;;13.95;4.07;;;;;;;;;;5053935;28;20043;-37
2022/04/06 09:00:26;;;;;;;8.70;3.20;;;;;;;;;;5053937;28;20152;-37
2022/04/06 09:02:53;;;;;;;9.95;3.92;;;;;;;;;;5053717;28;20128;-37
2022/04/06 09:05:28;;;;;;;13.10;3.75;;;;;;;;;;5053925;28;20025;-38
2022/04/06 09:07:55;;;;;;;10.85;3.78;;;;;;;;;;5053904;28;20047;-38
2022/04/06 09:10:33;;;;;;;14.55;3.95;;;;;;;;;;5035172;28;20367;-37
2022/04/06 09:13:13;;;;;;;12.70;4.18;;;;;;;;;;5053534;28;20094;-37
2022/04/06 09:15:41;;;;;;;10.80;3.78;;;;;;;;;;5053638;28;20025;-37
2022/04/06 09:18:08;;;;;;;8.88;3.40;;;;;;;;;;5048856;28;20026;-37
2022/04/06 09:20:35;;;;;;;11.82;3.78;;;;;;;;;;5050934;28;20025;-37
2022/04/06 09:23:03;;;;;;;14.98;3.80;;;;;;;;;;5053887;28;20032;-37
2022/04/06 09:25:37;;;;;;;12.70;3.50;;;;;;;;;;5053211;28;20028;-38
2022/04/06 09:28:11;;;;;;;12.80;3.35;;;;;;;;;;5053504;28;20037;-38
2022/04/06 09:30:48;;;;;;;17.52;5.13;;;;;;;;;;5053137;28;20053;-38
2022/04/06 09:33:15;;;;;;;13.38;4.13;;;;;;;;;;5052405;28;20045;-38
2022/04/06 09:35:43;;;;;;;14.20;4.47;;;;;;;;;;5052138;28;20032;-37
2022/04/06 09:38:14;;;;;;;12.70;3.90;;;;;;;;;;5052762;28;20570;-38
2022/04/06 09:40:42;;;;;;;20.23;4.43;;;;;;;;;;5053026;28;20025;-38
2022/04/06 09:43:10;;;;;;;13.23;3.70;;;;;;;;;;5052702;28;20079;-37
2022/04/06 09:48:22;;;;;;;14.65;4.25;;;;;;;;;;5052950;28;20091;-37
2022/04/06 09:50:56;;;;;;;10.57;3.85;;;;;;;;;;5052546;28;20029;-38
2022/04/06 09:53:27;;;;;;;12.07;3.88;;;;;;;;;;5052680;28;20049;-38
2022/04/06 09:55:55;;;;;;;16.67;3.92;;;;;;;;;;5052456;28;20036;-37
2022/04/06 09:58:22;;;;;;;21.50;4.38;;;;;;;;;;5052677;28;20033;-37
2022/04/06 10:00:49;;;;;;;17.27;3.88;;;;;;;;;;5052948;28;20028;-38
2022/04/06 10:03:18;;;;;;;17.85;3.88;;;;;;;;;;5052365;28;20033;-38
2022/04/06 10:05:46;;;;;;;20.38;3.75;;;;;;;;;;5052756;28;20033;-37
2022/04/06 10:08:13;;;;;;;17.25;3.78;;;;;;;;;;5052586;28;20441;-37
2022/04/06 10:10:41;;;;;;;29.60;4.75;;;;;;;;;;5052171;28;20025;-38
2022/04/06 10:13:09;;;;;;;24.23;4.68;;;;;;;;;;5053002;28;20051;-37
2022/04/06 10:15:37;;;;;;;19.98;4.38;;;;;;;;;;5052324;28;20621;-37
2022/04/06 10:18:05;;;;;;;18.48;4.38;;;;;;;;;;5052623;28;20029;-37
2022/04/06 10:20:46;;;;;;;19.60;3.88;;;;;;;;;;5039292;28;20052;-37
2022/04/06 10:23:31;;;;;;;24.33;4.75;;;;;;;;;;5046279;28;20056;-41
2022/04/06 10:25:58;;;;;;;21.20;4.57;;;;;;;;;;5051625;28;20112;-43
2022/04/06 10:28:25;;;;;;;27.05;4.20;;;;;;;;;;5051649;28;20029;-40
2022/04/06 10:31:10;;;;;;;27.85;4.82;;;;;;;;;;5043319;28;20112;-43
2022/04/06 10:33:37;;;;;;;26.50;4.68;;;;;;;;;;5051176;28;20060;-40
2022/04/06 10:36:32;;;;;;;23.02;4.28;;;;;;;;;;5051765;28;20032;-36
2022/04/06 10:39:05;;;;;;;16.48;3.95;;;;;;;;;;5051315;28;20545;-36
2022/04/06 10:41:33;;;;;;;22.35;4.47;;;;;;;;;;5050668;28;20029;-41
2022/04/06 10:44:00;;;;;;;23.25;4.55;;;;;;;;;;5050835;28;20493;-39
2022/04/06 10:46:34;;;;;;;20.73;4.80;;;;;;;;;;5051046;28;20037;-39
2022/04/06 10:49:08;;;;;;;20.15;3.75;;;;;;;;;;5051554;28;20593;-40
2022/04/06 10:51:37;;;;;;;17.65;3.72;;;;;;;;;;5050760;28;20035;-40
2022/04/06 10:54:16;;;;;;;23.05;4.22;;;;;;;;;;5050069;28;20040;-41
2022/04/06 10:56:55;;;;;;;17.50;4.53;;;;;;;;;;5050882;28;20035;-38
2022/04/06 10:59:27;;;;;;;21.35;4.28;;;;;;;;;;5051234;28;20139;-40
2022/04/06 11:02:12;;;;;;;20.55;3.80;;;;;;;;;;5051165;28;20040;-38
2022/04/06 11:04:40;;;;;;;21.15;4.13;;;;;;;;;;5030491;28;20490;-42
2022/04/06 11:07:08;;;;;;;19.02;4.63;;;;;;;;;;5048679;28;20033;-39
2022/04/06 11:12:28;;;;;;;15.27;4.13;;;;;;;;;;5050474;28;20821;-40
2022/04/06 11:15:01;;;;;;;18.17;4.72;;;;;;;;;;5050854;28;20103;-39
2022/04/06 11:17:38;;;;;;;17.45;3.90;;;;;;;;;;5050337;28;20613;-41
2022/04/06 11:20:12;;;;;;;21.25;4.88;;;;;;;;;;5050031;28;20041;-41
2022/04/06 11:22:44;;;;;;;17.98;4.35;;;;;;;;;;5033251;28;20047;-39
2022/04/06 11:25:13;;;;;;;27.93;5.30;;;;;;;;;;5050160;28;20025;-40
2022/04/06 11:27:41;;;;;;;15.48;4.10;;;;;;;;;;5050326;28;20032;-40
2022/04/06 11:30:18;;;;;;;24.13;4.28;;;;;;;;;;5049571;28;20033;-44
2022/04/06 11:32:52;;;;;;;16.63;4.15;;;;;;;;;;5040670;28;20060;-40
2022/04/06 11:35:19;;;;;;;19.65;3.97;;;;;;;;;;5044220;28;20506;-42
2022/04/06 11:37:50;;;;;;;18.15;3.97;;;;;;;;;;5048988;28;20108;-38
2022/04/06 11:40:17;;;;;;;19.25;3.45;;;;;;;;;;5050420;28;20087;-40
2022/04/06 11:42:51;;;;;;;21.23;4.05;;;;;;;;;;5049664;28;20033;-38
2022/04/06 11:45:25;;;;;;;20.42;4.20;;;;;;;;;;5051001;28;20120;-38
2022/04/06 11:47:53;;;;;;;20.10;3.63;;;;;;;;;;5049409;28;20108;-39
2022/04/06 11:50:20;;;;;;;17.20;3.70;;;;;;;;;;5050387;28;20075;-38
2022/04/06 11:52:48;;;;;;;14.63;4.00;;;;;;;;;;5050853;28;20025;-40
2022/04/06 11:55:15;;;;;;;13.32;3.60;;;;;;;;;;5054028;28;20038;-39
2022/04/06 11:57:49;;;;;;;20.02;3.63;;;;;;;;;;5053958;28;20094;-39
2022/04/06 12:00:18;;;;;;;17.13;3.88;;;;;;;;;;5053984;28;20108;-40
2022/04/06 12:02:55;;;;;;;14.13;4.10;;;;;;;;;;5054616;28;20033;-39
2022/04/06 12:05:23;;;;;;;15.50;3.85;;;;;;;;;;5053385;28;20037;-43
2022/04/06 12:08:10;;;;;;;13.70;3.67;;;;;;;;;;5053412;28;20111;-40
2022/04/06 12:10:37;;;;;;;13.85;3.10;;;;;;;;;;5036789;28;20033;-37
2022/04/06 12:13:05;;;;;;;11.73;3.17;;;;;;;;;;5054054;28;20025;-39
2022/04/06 12:15:32;;;;;;;11.05;3.47;;;;;;;;;;5053694;28;20033;-40
2022/04/06 12:17:59;;;;;;;13.32;3.53;;;;;;;;;;5052722;28;20043;-40
2022/04/06 12:20:28;;;;;;;14.52;2.97;;;;;;;;;;5053888;28;20029;-39
2022/04/06 12:23:02;;;;;;;16.20;3.70;;;;;;;;;;5053909;28;20107;-42
2022/04/06 12:25:29;;;;;;;18.25;3.75;;;;;;;;;;5054542;28;20064;-42
2022/04/06 12:28:15;;;;;;;13.77;3.47;;;;;;;;;;5053082;28;20028;-43
2022/04/06 12:30:52;;;;;;;13.95;3.63;;;;;;;;;;5052890;28;20111;-44
2022/04/06 12:33:37;;;;;;;14.10;3.42;;;;;;;;;;5053952;28;20049;-40
2022/04/06 12:36:07;;;;;;;9.40;2.70;;;;;;;;;;5036116;28;20629;-41
2022/04/06 12:38:34;;;;;;;13.25;3.33;;;;;;;;;;5053077;28;20487;-38
2022/04/06 12:41:05;;;;;;;9.73;2.80;;;;;;;;;;5053423;28;20044;-40
2022/04/06 12:43:31;;;;;;;8.70;3.15;;;;;;;;;;5053478;28;20055;-39
2022/04/06 12:45:58;;;;;;;13.82;3.42;;;;;;;;;;5035814;28;20063;-40
2022/04/06 12:48:26;;;;;;;15.93;3.58;;;;;;;;;;5053231;28;20041;-42
2022/04/06 12:50:53;;;;;;;14.27;3.30;;;;;;;;;;5052881;28;20074;-38
2022/04/06 12:53:20;;;;;;;11.00;3.35;;;;;;;;;;5052955;28;20036;-41
2022/04/06 12:55:47;;;;;;;14.45;3.50;;;;;;;;;;5053401;28;20471;-42
2022/04/06 12:58:15;;;;;;;12.98;3.35;;;;;;;;;;5052991;28;20035;-41
2022/04/06 13:00:42;;;;;;;16.67;3.35;;;;;;;;;;5052169;28;20578;-41
2022/04/06 13:03:09;;;;;;;8.90;2.65;;;;;;;;;;5053877;28;20036;-42
2022/04/06 13:05:36;;;;;;;16.58;3.53;;;;;;;;;;5051931;28;20043;-43
2022/04/06 13:08:05;;;;;;;12.90;3.10;;;;;;;;;;5053326;28;20056;-40
2022/04/06 13:10:37;;;;;;;16.23;3.78;;;;;;;;;;5052257;28;20032;-41
2022/04/06 13:13:04;;;;;;;17.85;3.03;;;;;;;;;;5051751;28;20087;-40
2022/04/06 13:15:32;;;;;;;14.32;2.83;;;;;;;;;;5053407;28;20112;-42
2022/04/06 13:17:59;;;;;;;12.43;2.70;;;;;;;;;;5053003;28;20048;-39
2022/04/06 13:20:26;;;;;;;15.55;3.58;;;;;;;;;;5051603;28;20398;-39
2022/04/06 13:22:54;;;;;;;12.98;3.00;;;;;;;;;;5051205;28;20116;-39
2022/04/06 13:25:21;;;;;;;13.07;2.88;;;;;;;;;;5053125;28;20037;-39
2022/04/06 13:27:48;;;;;;;16.33;3.08;;;;;;;;;;5052429;28;20449;-39
2022/04/06 13:30:16;;;;;;;17.20;3.45;;;;;;;;;;5050625;28;20090;-39
2022/04/06 13:32:44;;;;;;;19.08;3.25;;;;;;;;;;5049909;28;20462;-37
2022/04/06 13:35:11;;;;;;;13.95;3.20;;;;;;;;;;5038402;28;20033;-38
2022/04/06 13:37:39;;;;;;;17.60;3.38;;;;;;;;;;5026764;28;20068;-42
2022/04/06 13:40:06;;;;;;;12.30;2.85;;;;;;;;;;5038346;28;20025;-39
2022/04/06 13:42:33;;;;;;;12.52;2.92;;;;;;;;;;5039617;28;20067;-39
2022/04/06 13:45:01;;;;;;;16.40;3.47;;;;;;;;;;5034422;28;20057;-39
2022/04/06 13:47:29;;;;;;;19.40;3.08;;;;;;;;;;5038630;28;20098;-39
2022/04/06 13:49:57;;;;;;;14.95;3.17;;;;;;;;;;5038158;28;20040;-39
2022/04/06 13:52:24;;;;;;;13.40;3.55;;;;;;;;;;5045752;28;20033;-39
2022/04/06 13:54:52;;;;;;;16.60;3.10;;;;;;;;;;5050554;28;20548;-40
2022/04/06 13:57:19;;;;;;;12.57;2.92;;;;;;;;;;5051389;28;20055;-40
2022/04/06 13:59:47;;;;;;;22.52;3.78;;;;;;;;;;5051207;28;20112;-41
2022/04/06 14:02:16;;;;;;;15.25;3.15;;;;;;;;;;5051639;28;20051;-39
2022/04/06 14:04:43;;;;;;;11.45;2.90;;;;;;;;;;5050948;28;20037;-39
2022/04/06 14:07:10;;;;;;;20.10;3.92;;;;;;;;;;5051227;28;20062;-40
2022/04/06 14:09:37;;;;;;;12.02;2.60;;;;;;;;;;5051251;28;20041;-40
2022/04/06 14:12:04;;;;;;;20.45;3.28;;;;;;;;;;5051019;28;20037;-40
2022/04/06 14:14:31;;;;;;;17.73;3.42;;;;;;;;;;5051685;28;20086;-38
2022/04/06 14:16:58;;;;;;;18.05;3.45;;;;;;;;;;5050845;28;20052;-41
2022/04/06 14:19:25;;;;;;;15.32;2.97;;;;;;;;;;5050646;28;20122;-37
2022/04/06 14:21:52;;;;;;;18.17;3.75;;;;;;;;;;5051201;28;20395;-45
2022/04/06 14:24:20;;;;;;;20.83;3.20;;;;;;;;;;5032818;28;20041;-43
2022/04/06 14:26:47;;;;;;;23.17;3.47;;;;;;;;;;5050459;28;20371;-37
2022/04/06 14:29:14;;;;;;;18.42;3.17;;;;;;;;;;5051658;28;20049;-37
2022/04/06 14:31:41;;;;;;;18.13;3.28;;;;;;;;;;5050222;28;21098;-36
2022/04/06 14:34:09;;;;;;;15.18;3.25;;;;;;;;;;5051214;28;20032;-40
2022/04/06 14:36:37;;;;;;;13.57;3.65;;;;;;;;;;5050241;28;20067;-40
2022/04/06 14:39:04;;;;;;;17.10;3.00;;;;;;;;;;5050849;28;20108;-41